Huvudsida
METAR-TAF:

METAR-TAF

Flygplatser :

Monte Scuro, Italien

latitud: 39-20N, longitud: 016-24E, höjd: 1710 m

Aktuellt väderrapport

Denna rapport gjordes för 49 minuter sedan, klockan 13:55 UTC
Vind 20 kt från ost
Temperatur 18°C
Fuktighet 83%
Tryck 1025 hPa
Sikt 10 km eller mer
Spridda moln på en höjd av 600 ft

METAR: LIBQ 261355Z 10020KT 9999 SCT006 18/15 Q1025 RMK SCT MON LIB VAL NIL VIS MIN 9999

Tid: 16:44 (14:44 UTC)


TAF: saknas

Aktuella väderrapporter och prognoser från 4000 flygplatser (METAR- och TAF-rapporter).

De tillgängliga stationerna syns som gula och röda prickar på kartan.

För musen över prickarna för att se namnen på stationerna.

Klicka sedan för att få väderrapporter och prognoser.

För att ändra kartan: Klicka på de gröna knapparna med ett svart kors på för att zooma in; den gröna knappen med ett streck på för att zooma ut; eller på de gröna pilarna för angränsande kartor.


METAR-TAF: